Windham, New Hampshire
Current Conditions -  °F | °C
As of 5:54 PM on Tuesday 21 Oct 2014 (Local Time) from KLWM Reporting Station
Overcast Overcast  
Wind Chill: 57°   Ceiling: 1600
Heat Index: 57°   Visibility: 10mi
Dew Point: 54°   Wind: 9mph
Humidity: 89%   Direction: 50°NE
Pressure: 29.96"   Gusts: NA
Location:  42.8°N, 71.3°W
Report Text: KLWM 212154Z 05008KT 10SM OVC016 14/12 A2996 RMK AO2 SLP144 T01390122
Loading
Personal Weather Stations






























Interactive Weather Map
Tropical Storm Tracking
New forecast layout! Learn more

10-Day Weather Forecast

Advertisements
Track Severe Weather on mobile